sensor_id;sensor_type;location;lat;lon;timestamp;P1;durP1;ratioP1;P2;durP2;ratioP2
52104;SDS011;38103;42.776;23.112;2023-08-06T00:00:11;13.38;;;5.93;;
52104;SDS011;38103;42.776;23.112;2023-08-06T00:02:37;16.60;;;5.75;;
52104;SDS011;38103;42.776;23.112;2023-08-06T00:05:02;17.80;;;5.85;;
52104;SDS011;38103;42.776;23.112;2023-08-06T00:07:28;13.93;;;5.72;;
52104;SDS011;38103;42.776;23.112;2023-08-06T00:09:53;15.02;;;5.82;;
52104;SDS011;38103;42.776;23.112;2023-08-06T00:12:19;17.20;;;6.15;;
52104;SDS011;38103;42.776;23.112;2023-08-06T00:14:44;15.68;;;5.88;;
52104;SDS011;38103;42.776;23.112;2023-08-06T00:17:10;18.83;;;6.22;;
52104;SDS011;38103;42.776;23.112;2023-08-06T00:19:35;15.38;;;6.00;;
52104;SDS011;38103;42.776;23.112;2023-08-06T00:22:00;23.15;;;7.45;;
52104;SDS011;38103;42.776;23.112;2023-08-06T00:24:27;18.15;;;6.38;;
52104;SDS011;38103;42.776;23.112;2023-08-06T00:26:52;23.73;;;6.60;;
52104;SDS011;38103;42.776;23.112;2023-08-06T00:29:18;16.73;;;6.15;;
52104;SDS011;38103;42.776;23.112;2023-08-06T00:31:43;15.30;;;5.97;;
52104;SDS011;38103;42.776;23.112;2023-08-06T00:34:08;14.32;;;5.80;;
52104;SDS011;38103;42.776;23.112;2023-08-06T00:36:34;12.60;;;5.68;;
52104;SDS011;38103;42.776;23.112;2023-08-06T00:38:59;13.35;;;6.03;;
52104;SDS011;38103;42.776;23.112;2023-08-06T00:41:24;13.63;;;5.07;;
52104;SDS011;38103;42.776;23.112;2023-08-06T00:43:50;14.65;;;5.10;;
52104;SDS011;38103;42.776;23.112;2023-08-06T00:46:15;13.82;;;5.80;;
52104;SDS011;38103;42.776;23.112;2023-08-06T00:48:41;14.05;;;5.57;;
52104;SDS011;38103;42.776;23.112;2023-08-06T00:51:07;12.52;;;5.57;;
52104;SDS011;38103;42.776;23.112;2023-08-06T00:53:35;12.85;;;5.93;;
52104;SDS011;38103;42.776;23.112;2023-08-06T00:56:02;16.83;;;6.70;;
52104;SDS011;38103;42.776;23.112;2023-08-06T00:58:27;14.95;;;6.03;;
52104;SDS011;38103;42.776;23.112;2023-08-06T01:00:53;16.20;;;6.68;;
52104;SDS011;38103;42.776;23.112;2023-08-06T01:03:18;14.18;;;6.18;;
52104;SDS011;38103;42.776;23.112;2023-08-06T01:05:43;14.10;;;5.60;;
52104;SDS011;38103;42.776;23.112;2023-08-06T01:13:34;14.02;;;5.38;;
52104;SDS011;38103;42.776;23.112;2023-08-06T01:16:07;14.18;;;5.55;;
52104;SDS011;38103;42.776;23.112;2023-08-06T01:18:35;12.43;;;5.22;;
52104;SDS011;38103;42.776;23.112;2023-08-06T01:21:02;13.63;;;5.40;;
52104;SDS011;38103;42.776;23.112;2023-08-06T01:23:27;11.93;;;4.95;;
52104;SDS011;38103;42.776;23.112;2023-08-06T01:28:21;14.65;;;4.97;;
52104;SDS011;38103;42.776;23.112;2023-08-06T01:33:20;12.68;;;4.70;;
52104;SDS011;38103;42.776;23.112;2023-08-06T01:35:48;11.18;;;5.00;;
52104;SDS011;38103;42.776;23.112;2023-08-06T01:38:14;11.63;;;4.95;;
52104;SDS011;38103;42.776;23.112;2023-08-06T01:40:40;12.95;;;4.55;;
52104;SDS011;38103;42.776;23.112;2023-08-06T01:43:06;10.43;;;4.13;;
52104;SDS011;38103;42.776;23.112;2023-08-06T01:45:31;10.27;;;4.00;;
52104;SDS011;38103;42.776;23.112;2023-08-06T01:47:56;11.65;;;4.05;;
52104;SDS011;38103;42.776;23.112;2023-08-06T01:50:22;13.63;;;4.75;;
52104;SDS011;38103;42.776;23.112;2023-08-06T01:52:47;11.80;;;3.83;;
52104;SDS011;38103;42.776;23.112;2023-08-06T01:55:12;12.10;;;4.50;;
52104;SDS011;38103;42.776;23.112;2023-08-06T01:57:38;13.90;;;4.40;;
52104;SDS011;38103;42.776;23.112;2023-08-06T02:00:03;11.32;;;4.50;;
52104;SDS011;38103;42.776;23.112;2023-08-06T02:02:29;12.45;;;4.57;;
52104;SDS011;38103;42.776;23.112;2023-08-06T02:04:55;10.35;;;4.47;;
52104;SDS011;38103;42.776;23.112;2023-08-06T02:07:20;11.35;;;4.57;;
52104;SDS011;38103;42.776;23.112;2023-08-06T02:09:45;11.13;;;4.53;;
52104;SDS011;38103;42.776;23.112;2023-08-06T02:12:11;10.40;;;4.60;;
52104;SDS011;38103;42.776;23.112;2023-08-06T02:14:36;10.75;;;4.00;;
52104;SDS011;38103;42.776;23.112;2023-08-06T02:17:02;9.43;;;3.88;;
52104;SDS011;38103;42.776;23.112;2023-08-06T02:19:28;10.55;;;4.30;;
52104;SDS011;38103;42.776;23.112;2023-08-06T02:21:53;11.55;;;4.22;;
52104;SDS011;38103;42.776;23.112;2023-08-06T02:24:19;11.15;;;4.43;;
52104;SDS011;38103;42.776;23.112;2023-08-06T02:26:44;10.75;;;4.63;;
52104;SDS011;38103;42.776;23.112;2023-08-06T02:29:09;10.15;;;4.65;;
52104;SDS011;38103;42.776;23.112;2023-08-06T02:31:35;13.88;;;5.00;;
52104;SDS011;38103;42.776;23.112;2023-08-06T02:34:00;11.05;;;4.88;;
52104;SDS011;38103;42.776;23.112;2023-08-06T02:36:25;12.43;;;5.00;;
52104;SDS011;38103;42.776;23.112;2023-08-06T02:38:54;9.18;;;3.83;;
52104;SDS011;38103;42.776;23.112;2023-08-06T02:41:19;10.40;;;4.38;;
52104;SDS011;38103;42.776;23.112;2023-08-06T02:43:45;13.50;;;4.75;;
52104;SDS011;38103;42.776;23.112;2023-08-06T02:46:10;10.52;;;4.47;;
52104;SDS011;38103;42.776;23.112;2023-08-06T02:48:35;10.25;;;4.30;;
52104;SDS011;38103;42.776;23.112;2023-08-06T02:51:01;10.02;;;4.30;;
52104;SDS011;38103;42.776;23.112;2023-08-06T02:53:26;13.45;;;4.50;;
52104;SDS011;38103;42.776;23.112;2023-08-06T02:55:52;12.40;;;3.63;;
52104;SDS011;38103;42.776;23.112;2023-08-06T02:58:17;10.65;;;4.18;;
52104;SDS011;38103;42.776;23.112;2023-08-06T03:00:47;9.52;;;4.15;;
52104;SDS011;38103;42.776;23.112;2023-08-06T03:03:23;11.88;;;4.88;;
52104;SDS011;38103;42.776;23.112;2023-08-06T03:05:52;12.80;;;4.88;;
52104;SDS011;38103;42.776;23.112;2023-08-06T03:08:18;12.93;;;4.85;;
52104;SDS011;38103;42.776;23.112;2023-08-06T03:10:47;13.10;;;5.03;;
52104;SDS011;38103;42.776;23.112;2023-08-06T03:13:12;9.23;;;3.90;;
52104;SDS011;38103;42.776;23.112;2023-08-06T03:15:38;10.95;;;3.95;;
52104;SDS011;38103;42.776;23.112;2023-08-06T03:18:03;10.18;;;3.35;;
52104;SDS011;38103;42.776;23.112;2023-08-06T03:20:28;11.70;;;3.78;;
52104;SDS011;38103;42.776;23.112;2023-08-06T03:22:54;11.15;;;4.05;;
52104;SDS011;38103;42.776;23.112;2023-08-06T03:25:19;11.55;;;4.05;;
52104;SDS011;38103;42.776;23.112;2023-08-06T03:27:44;10.20;;;3.97;;
52104;SDS011;38103;42.776;23.112;2023-08-06T03:30:10;9.98;;;3.90;;
52104;SDS011;38103;42.776;23.112;2023-08-06T03:32:35;10.00;;;4.03;;
52104;SDS011;38103;42.776;23.112;2023-08-06T03:35:01;11.70;;;4.50;;
52104;SDS011;38103;42.776;23.112;2023-08-06T03:37:26;11.82;;;4.60;;
52104;SDS011;38103;42.776;23.112;2023-08-06T03:39:51;11.07;;;4.95;;
52104;SDS011;38103;42.776;23.112;2023-08-06T03:42:17;14.52;;;5.70;;
52104;SDS011;38103;42.776;23.112;2023-08-06T03:44:42;13.23;;;5.53;;
52104;SDS011;38103;42.776;23.112;2023-08-06T03:47:07;12.75;;;5.20;;
52104;SDS011;38103;42.776;23.112;2023-08-06T03:49:33;11.40;;;5.82;;
52104;SDS011;38103;42.776;23.112;2023-08-06T03:51:58;11.27;;;5.38;;
52104;SDS011;38103;42.776;23.112;2023-08-06T03:54:23;12.63;;;5.20;;
52104;SDS011;38103;42.776;23.112;2023-08-06T03:56:49;16.80;;;5.03;;
52104;SDS011;38103;42.776;23.112;2023-08-06T03:59:14;12.88;;;5.13;;
52104;SDS011;38103;42.776;23.112;2023-08-06T04:01:39;11.25;;;4.70;;
52104;SDS011;38103;42.776;23.112;2023-08-06T04:04:05;12.98;;;4.60;;
52104;SDS011;38103;42.776;23.112;2023-08-06T04:06:30;12.70;;;4.20;;
52104;SDS011;38103;42.776;23.112;2023-08-06T04:08:55;10.93;;;4.20;;
52104;SDS011;38103;42.776;23.112;2023-08-06T04:11:21;12.05;;;4.25;;
52104;SDS011;38103;42.776;23.112;2023-08-06T04:13:47;11.40;;;4.60;;
52104;SDS011;38103;42.776;23.112;2023-08-06T04:16:12;10.25;;;4.50;;
52104;SDS011;38103;42.776;23.112;2023-08-06T04:18:39;10.18;;;4.32;;
52104;SDS011;38103;42.776;23.112;2023-08-06T04:21:05;10.35;;;4.22;;
52104;SDS011;38103;42.776;23.112;2023-08-06T04:23:30;12.93;;;4.63;;
52104;SDS011;38103;42.776;23.112;2023-08-06T04:25:56;10.48;;;4.25;;
52104;SDS011;38103;42.776;23.112;2023-08-06T04:28:22;11.98;;;5.38;;
52104;SDS011;38103;42.776;23.112;2023-08-06T04:30:47;123.10;;;62.65;;
52104;SDS011;38103;42.776;23.112;2023-08-06T04:33:13;156.20;;;78.63;;
52104;SDS011;38103;42.776;23.112;2023-08-06T04:35:38;97.50;;;53.67;;
52104;SDS011;38103;42.776;23.112;2023-08-06T04:38:03;18.48;;;9.05;;
52104;SDS011;38103;42.776;23.112;2023-08-06T04:40:29;14.23;;;7.38;;
52104;SDS011;38103;42.776;23.112;2023-08-06T04:42:54;18.95;;;10.40;;
52104;SDS011;38103;42.776;23.112;2023-08-06T04:45:19;25.17;;;15.05;;
52104;SDS011;38103;42.776;23.112;2023-08-06T04:47:45;16.23;;;9.85;;
52104;SDS011;38103;42.776;23.112;2023-08-06T04:50:10;16.20;;;9.73;;
52104;SDS011;38103;42.776;23.112;2023-08-06T04:52:37;10.95;;;5.15;;
52104;SDS011;38103;42.776;23.112;2023-08-06T04:55:06;17.50;;;8.93;;
52104;SDS011;38103;42.776;23.112;2023-08-06T04:57:32;16.92;;;8.13;;
52104;SDS011;38103;42.776;23.112;2023-08-06T04:59:57;18.63;;;8.27;;
52104;SDS011;38103;42.776;23.112;2023-08-06T05:02:22;24.33;;;13.93;;
52104;SDS011;38103;42.776;23.112;2023-08-06T05:04:48;21.17;;;13.18;;
52104;SDS011;38103;42.776;23.112;2023-08-06T05:07:13;11.18;;;5.63;;
52104;SDS011;38103;42.776;23.112;2023-08-06T05:09:38;21.10;;;15.48;;
52104;SDS011;38103;42.776;23.112;2023-08-06T05:12:04;35.03;;;26.95;;
52104;SDS011;38103;42.776;23.112;2023-08-06T05:14:30;24.33;;;16.05;;
52104;SDS011;38103;42.776;23.112;2023-08-06T05:16:55;41.85;;;29.73;;
52104;SDS011;38103;42.776;23.112;2023-08-06T05:19:20;38.10;;;23.40;;
52104;SDS011;38103;42.776;23.112;2023-08-06T05:21:46;19.08;;;12.00;;
52104;SDS011;38103;42.776;23.112;2023-08-06T05:24:11;28.20;;;20.15;;
52104;SDS011;38103;42.776;23.112;2023-08-06T05:26:37;24.75;;;16.92;;
52104;SDS011;38103;42.776;23.112;2023-08-06T05:29:02;23.40;;;15.80;;
52104;SDS011;38103;42.776;23.112;2023-08-06T05:31:28;23.33;;;15.70;;
52104;SDS011;38103;42.776;23.112;2023-08-06T05:33:54;14.73;;;7.63;;
52104;SDS011;38103;42.776;23.112;2023-08-06T05:36:19;29.08;;;17.67;;
52104;SDS011;38103;42.776;23.112;2023-08-06T05:38:45;9.70;;;3.92;;
52104;SDS011;38103;42.776;23.112;2023-08-06T05:41:10;8.48;;;3.50;;
52104;SDS011;38103;42.776;23.112;2023-08-06T05:43:35;9.10;;;3.97;;
52104;SDS011;38103;42.776;23.112;2023-08-06T05:46:01;13.63;;;6.30;;
52104;SDS011;38103;42.776;23.112;2023-08-06T05:48:26;12.07;;;3.40;;
52104;SDS011;38103;42.776;23.112;2023-08-06T05:50:52;10.00;;;4.15;;
52104;SDS011;38103;42.776;23.112;2023-08-06T05:53:18;12.57;;;4.25;;
52104;SDS011;38103;42.776;23.112;2023-08-06T05:55:44;12.20;;;4.03;;
52104;SDS011;38103;42.776;23.112;2023-08-06T05:58:10;9.75;;;3.90;;
52104;SDS011;38103;42.776;23.112;2023-08-06T06:00:35;11.55;;;3.90;;
52104;SDS011;38103;42.776;23.112;2023-08-06T06:03:01;9.40;;;3.53;;
52104;SDS011;38103;42.776;23.112;2023-08-06T06:05:27;11.13;;;3.55;;
52104;SDS011;38103;42.776;23.112;2023-08-06T06:07:53;9.77;;;4.07;;
52104;SDS011;38103;42.776;23.112;2023-08-06T06:10:18;8.82;;;3.70;;
52104;SDS011;38103;42.776;23.112;2023-08-06T06:12:44;10.15;;;3.72;;
52104;SDS011;38103;42.776;23.112;2023-08-06T06:15:09;10.27;;;4.38;;
52104;SDS011;38103;42.776;23.112;2023-08-06T06:17:34;8.15;;;3.25;;
52104;SDS011;38103;42.776;23.112;2023-08-06T06:20:00;9.73;;;3.72;;
52104;SDS011;38103;42.776;23.112;2023-08-06T06:22:25;11.63;;;4.50;;
52104;SDS011;38103;42.776;23.112;2023-08-06T06:24:51;8.77;;;3.47;;
52104;SDS011;38103;42.776;23.112;2023-08-06T06:27:16;9.45;;;3.38;;
52104;SDS011;38103;42.776;23.112;2023-08-06T06:29:42;8.65;;;3.17;;
52104;SDS011;38103;42.776;23.112;2023-08-06T06:32:07;10.65;;;3.30;;
52104;SDS011;38103;42.776;23.112;2023-08-06T06:34:32;8.30;;;3.00;;
52104;SDS011;38103;42.776;23.112;2023-08-06T06:36:58;10.48;;;3.00;;
52104;SDS011;38103;42.776;23.112;2023-08-06T06:39:23;9.02;;;3.42;;
52104;SDS011;38103;42.776;23.112;2023-08-06T06:41:48;7.15;;;2.88;;
52104;SDS011;38103;42.776;23.112;2023-08-06T06:44:14;7.75;;;2.97;;
52104;SDS011;38103;42.776;23.112;2023-08-06T06:46:40;7.95;;;2.72;;
52104;SDS011;38103;42.776;23.112;2023-08-06T06:49:05;13.02;;;3.10;;
52104;SDS011;38103;42.776;23.112;2023-08-06T06:51:31;8.77;;;3.15;;
52104;SDS011;38103;42.776;23.112;2023-08-06T06:53:59;8.93;;;3.38;;
52104;SDS011;38103;42.776;23.112;2023-08-06T06:56:25;11.73;;;3.28;;
52104;SDS011;38103;42.776;23.112;2023-08-06T06:58:50;7.75;;;2.70;;
52104;SDS011;38103;42.776;23.112;2023-08-06T07:01:15;7.80;;;3.08;;
52104;SDS011;38103;42.776;23.112;2023-08-06T07:03:41;8.98;;;3.33;;
52104;SDS011;38103;42.776;23.112;2023-08-06T07:06:06;8.68;;;2.97;;
52104;SDS011;38103;42.776;23.112;2023-08-06T07:08:32;8.77;;;2.92;;
52104;SDS011;38103;42.776;23.112;2023-08-06T07:11:01;7.90;;;3.17;;
52104;SDS011;38103;42.776;23.112;2023-08-06T07:13:31;9.98;;;3.00;;
52104;SDS011;38103;42.776;23.112;2023-08-06T07:15:57;10.63;;;3.17;;
52104;SDS011;38103;42.776;23.112;2023-08-06T07:18:23;8.70;;;2.92;;
52104;SDS011;38103;42.776;23.112;2023-08-06T07:20:50;9.07;;;2.90;;
52104;SDS011;38103;42.776;23.112;2023-08-06T07:23:16;8.98;;;3.00;;
52104;SDS011;38103;42.776;23.112;2023-08-06T07:25:41;7.65;;;2.90;;
52104;SDS011;38103;42.776;23.112;2023-08-06T07:28:07;7.38;;;2.95;;
52104;SDS011;38103;42.776;23.112;2023-08-06T07:30:33;8.38;;;2.78;;
52104;SDS011;38103;42.776;23.112;2023-08-06T07:32:58;9.48;;;3.47;;
52104;SDS011;38103;42.776;23.112;2023-08-06T07:35:24;11.05;;;3.30;;
52104;SDS011;38103;42.776;23.112;2023-08-06T07:37:49;8.57;;;3.25;;
52104;SDS011;38103;42.776;23.112;2023-08-06T07:40:15;8.68;;;3.00;;
52104;SDS011;38103;42.776;23.112;2023-08-06T07:42:40;8.65;;;2.92;;
52104;SDS011;38103;42.776;23.112;2023-08-06T07:45:06;9.05;;;3.08;;
52104;SDS011;38103;42.776;23.112;2023-08-06T07:47:33;8.38;;;3.20;;
52104;SDS011;38103;42.776;23.112;2023-08-06T07:49:58;10.63;;;3.08;;
52104;SDS011;38103;42.776;23.112;2023-08-06T07:52:24;9.75;;;3.00;;
52104;SDS011;38103;42.776;23.112;2023-08-06T07:54:50;9.15;;;3.20;;
52104;SDS011;38103;42.776;23.112;2023-08-06T07:57:15;7.85;;;3.10;;
52104;SDS011;38103;42.776;23.112;2023-08-06T07:59:41;7.95;;;2.83;;
52104;SDS011;38103;42.776;23.112;2023-08-06T08:02:06;9.20;;;3.22;;
52104;SDS011;38103;42.776;23.112;2023-08-06T08:04:31;8.88;;;3.13;;
52104;SDS011;38103;42.776;23.112;2023-08-06T08:06:57;9.95;;;3.50;;
52104;SDS011;38103;42.776;23.112;2023-08-06T08:09:22;9.18;;;3.10;;
52104;SDS011;38103;42.776;23.112;2023-08-06T08:11:47;8.50;;;3.35;;
52104;SDS011;38103;42.776;23.112;2023-08-06T08:14:13;10.95;;;3.55;;
52104;SDS011;38103;42.776;23.112;2023-08-06T08:16:38;8.88;;;3.40;;
52104;SDS011;38103;42.776;23.112;2023-08-06T08:19:04;9.25;;;3.20;;
52104;SDS011;38103;42.776;23.112;2023-08-06T08:21:29;9.23;;;3.42;;
52104;SDS011;38103;42.776;23.112;2023-08-06T08:23:55;12.50;;;3.38;;
52104;SDS011;38103;42.776;23.112;2023-08-06T08:26:20;8.70;;;3.30;;
52104;SDS011;38103;42.776;23.112;2023-08-06T08:28:45;8.48;;;3.17;;
52104;SDS011;38103;42.776;23.112;2023-08-06T08:31:11;7.95;;;2.90;;
52104;SDS011;38103;42.776;23.112;2023-08-06T08:33:40;9.30;;;3.20;;
52104;SDS011;38103;42.776;23.112;2023-08-06T08:36:05;8.13;;;2.90;;
52104;SDS011;38103;42.776;23.112;2023-08-06T08:38:31;10.30;;;3.17;;
52104;SDS011;38103;42.776;23.112;2023-08-06T08:40:56;8.32;;;3.20;;
52104;SDS011;38103;42.776;23.112;2023-08-06T08:43:22;11.90;;;3.30;;
52104;SDS011;38103;42.776;23.112;2023-08-06T08:45:51;10.75;;;3.28;;
52104;SDS011;38103;42.776;23.112;2023-08-06T08:48:20;8.73;;;2.97;;
52104;SDS011;38103;42.776;23.112;2023-08-06T08:50:46;9.65;;;3.10;;
52104;SDS011;38103;42.776;23.112;2023-08-06T08:53:15;9.23;;;3.40;;
52104;SDS011;38103;42.776;23.112;2023-08-06T08:55:42;9.30;;;3.25;;
52104;SDS011;38103;42.776;23.112;2023-08-06T08:58:09;9.43;;;3.08;;
52104;SDS011;38103;42.776;23.112;2023-08-06T09:00:35;8.20;;;2.85;;
52104;SDS011;38103;42.776;23.112;2023-08-06T09:03:01;9.48;;;3.05;;
52104;SDS011;38103;42.776;23.112;2023-08-06T09:05:30;9.02;;;3.35;;
52104;SDS011;38103;42.776;23.112;2023-08-06T09:07:59;8.50;;;3.20;;
52104;SDS011;38103;42.776;23.112;2023-08-06T09:10:28;9.77;;;3.15;;
52104;SDS011;38103;42.776;23.112;2023-08-06T09:12:53;7.70;;;2.70;;
52104;SDS011;38103;42.776;23.112;2023-08-06T09:15:23;8.02;;;2.80;;
52104;SDS011;38103;42.776;23.112;2023-08-06T09:17:50;9.52;;;3.30;;
52104;SDS011;38103;42.776;23.112;2023-08-06T09:20:15;10.82;;;3.03;;
52104;SDS011;38103;42.776;23.112;2023-08-06T09:22:41;9.13;;;3.20;;
52104;SDS011;38103;42.776;23.112;2023-08-06T09:25:07;7.97;;;3.00;;
52104;SDS011;38103;42.776;23.112;2023-08-06T09:27:36;8.63;;;3.05;;
52104;SDS011;38103;42.776;23.112;2023-08-06T09:30:05;10.85;;;2.90;;
52104;SDS011;38103;42.776;23.112;2023-08-06T09:32:47;9.85;;;2.83;;
52104;SDS011;38103;42.776;23.112;2023-08-06T09:35:16;7.22;;;2.75;;
52104;SDS011;38103;42.776;23.112;2023-08-06T09:37:42;8.02;;;2.92;;
52104;SDS011;38103;42.776;23.112;2023-08-06T09:40:27;9.02;;;3.03;;
52104;SDS011;38103;42.776;23.112;2023-08-06T09:42:56;12.10;;;2.90;;
52104;SDS011;38103;42.776;23.112;2023-08-06T09:45:23;7.95;;;2.88;;
52104;SDS011;38103;42.776;23.112;2023-08-06T09:47:56;10.52;;;3.00;;
52104;SDS011;38103;42.776;23.112;2023-08-06T09:50:21;7.75;;;2.72;;
52104;SDS011;38103;42.776;23.112;2023-08-06T09:52:47;8.95;;;3.15;;
52104;SDS011;38103;42.776;23.112;2023-08-06T09:55:14;9.85;;;3.40;;
52104;SDS011;38103;42.776;23.112;2023-08-06T09:57:40;8.88;;;3.10;;
52104;SDS011;38103;42.776;23.112;2023-08-06T10:00:08;8.93;;;3.22;;
52104;SDS011;38103;42.776;23.112;2023-08-06T10:02:35;10.00;;;3.60;;
52104;SDS011;38103;42.776;23.112;2023-08-06T10:05:03;9.88;;;3.08;;
52104;SDS011;38103;42.776;23.112;2023-08-06T10:07:29;8.35;;;3.00;;
52104;SDS011;38103;42.776;23.112;2023-08-06T10:09:55;8.68;;;2.90;;
52104;SDS011;38103;42.776;23.112;2023-08-06T10:12:21;10.38;;;3.25;;
52104;SDS011;38103;42.776;23.112;2023-08-06T10:14:50;19.35;;;6.32;;
52104;SDS011;38103;42.776;23.112;2023-08-06T10:17:18;8.80;;;3.17;;
52104;SDS011;38103;42.776;23.112;2023-08-06T10:19:44;8.82;;;3.40;;
52104;SDS011;38103;42.776;23.112;2023-08-06T10:24:53;9.52;;;3.70;;
52104;SDS011;38103;42.776;23.112;2023-08-06T10:27:30;9.50;;;3.50;;
52104;SDS011;38103;42.776;23.112;2023-08-06T10:30:40;11.10;;;4.20;;
52104;SDS011;38103;42.776;23.112;2023-08-06T10:32:51;36.50;;;13.50;;
52104;SDS011;38103;42.776;23.112;2023-08-06T10:35:32;9.65;;;3.92;;
52104;SDS011;38103;42.776;23.112;2023-08-06T10:38:15;10.88;;;4.25;;
52104;SDS011;38103;42.776;23.112;2023-08-06T10:40:50;9.82;;;4.05;;
52104;SDS011;38103;42.776;23.112;2023-08-06T10:45:54;10.10;;;4.20;;
52104;SDS011;38103;42.776;23.112;2023-08-06T10:48:30;11.57;;;4.57;;
52104;SDS011;38103;42.776;23.112;2023-08-06T10:51:07;10.57;;;4.80;;
52104;SDS011;38103;42.776;23.112;2023-08-06T10:53:34;11.70;;;4.95;;
52104;SDS011;38103;42.776;23.112;2023-08-06T10:56:02;16.77;;;5.53;;
52104;SDS011;38103;42.776;23.112;2023-08-06T10:58:37;17.45;;;6.32;;
52104;SDS011;38103;42.776;23.112;2023-08-06T11:01:02;17.75;;;6.53;;
52104;SDS011;38103;42.776;23.112;2023-08-06T11:03:28;14.85;;;6.38;;
52104;SDS011;38103;42.776;23.112;2023-08-06T11:05:53;32.60;;;11.52;;
52104;SDS011;38103;42.776;23.112;2023-08-06T11:10:51;11.03;;;5.67;;
52104;SDS011;38103;42.776;23.112;2023-08-06T11:13:17;12.85;;;5.68;;
52104;SDS011;38103;42.776;23.112;2023-08-06T11:15:43;15.35;;;5.57;;
52104;SDS011;38103;42.776;23.112;2023-08-06T11:18:09;12.77;;;4.90;;
52104;SDS011;38103;42.776;23.112;2023-08-06T11:20:35;10.95;;;5.20;;
52104;SDS011;38103;42.776;23.112;2023-08-06T11:23:01;10.05;;;4.95;;
52104;SDS011;38103;42.776;23.112;2023-08-06T11:25:27;10.85;;;5.20;;
52104;SDS011;38103;42.776;23.112;2023-08-06T11:27:53;12.82;;;5.40;;
52104;SDS011;38103;42.776;23.112;2023-08-06T11:30:18;9.60;;;4.68;;
52104;SDS011;38103;42.776;23.112;2023-08-06T11:32:47;10.70;;;4.63;;
52104;SDS011;38103;42.776;23.112;2023-08-06T11:35:13;13.43;;;5.60;;
52104;SDS011;38103;42.776;23.112;2023-08-06T11:37:43;12.98;;;5.15;;
52104;SDS011;38103;42.776;23.112;2023-08-06T11:40:09;12.70;;;5.10;;
52104;SDS011;38103;42.776;23.112;2023-08-06T11:42:36;11.57;;;5.28;;
52104;SDS011;38103;42.776;23.112;2023-08-06T11:45:02;13.65;;;5.00;;
52104;SDS011;38103;42.776;23.112;2023-08-06T11:47:29;12.50;;;5.05;;
52104;SDS011;38103;42.776;23.112;2023-08-06T11:49:55;11.32;;;4.80;;
52104;SDS011;38103;42.776;23.112;2023-08-06T11:52:24;10.98;;;5.53;;
52104;SDS011;38103;42.776;23.112;2023-08-06T11:55:03;12.98;;;5.85;;
52104;SDS011;38103;42.776;23.112;2023-08-06T11:57:35;10.70;;;5.38;;
52104;SDS011;38103;42.776;23.112;2023-08-06T12:00:02;10.70;;;5.43;;
52104;SDS011;38103;42.776;23.112;2023-08-06T12:02:34;11.35;;;5.45;;
52104;SDS011;38103;42.776;23.112;2023-08-06T12:05:09;11.90;;;5.80;;
52104;SDS011;38103;42.776;23.112;2023-08-06T12:07:37;11.50;;;5.30;;
52104;SDS011;38103;42.776;23.112;2023-08-06T12:10:03;11.07;;;5.38;;
52104;SDS011;38103;42.776;23.112;2023-08-06T12:12:29;11.00;;;5.57;;
52104;SDS011;38103;42.776;23.112;2023-08-06T12:14:54;11.63;;;5.40;;
52104;SDS011;38103;42.776;23.112;2023-08-06T12:17:21;12.73;;;5.28;;
52104;SDS011;38103;42.776;23.112;2023-08-06T12:19:47;12.43;;;5.85;;
52104;SDS011;38103;42.776;23.112;2023-08-06T12:22:12;13.27;;;5.07;;
52104;SDS011;38103;42.776;23.112;2023-08-06T12:24:39;12.98;;;5.40;;
52104;SDS011;38103;42.776;23.112;2023-08-06T12:27:05;14.52;;;5.40;;
52104;SDS011;38103;42.776;23.112;2023-08-06T12:29:31;12.60;;;5.45;;
52104;SDS011;38103;42.776;23.112;2023-08-06T12:31:56;12.60;;;4.82;;
52104;SDS011;38103;42.776;23.112;2023-08-06T12:34:22;11.60;;;5.40;;
52104;SDS011;38103;42.776;23.112;2023-08-06T12:36:47;12.18;;;5.32;;
52104;SDS011;38103;42.776;23.112;2023-08-06T12:39:12;13.00;;;5.05;;
52104;SDS011;38103;42.776;23.112;2023-08-06T12:41:38;12.85;;;5.03;;
52104;SDS011;38103;42.776;23.112;2023-08-06T12:44:03;12.48;;;5.00;;
52104;SDS011;38103;42.776;23.112;2023-08-06T12:46:29;12.05;;;5.20;;
52104;SDS011;38103;42.776;23.112;2023-08-06T12:48:56;12.18;;;4.72;;
52104;SDS011;38103;42.776;23.112;2023-08-06T12:51:22;10.85;;;5.00;;
52104;SDS011;38103;42.776;23.112;2023-08-06T12:53:48;10.75;;;5.10;;
52104;SDS011;38103;42.776;23.112;2023-08-06T12:56:14;11.00;;;4.38;;
52104;SDS011;38103;42.776;23.112;2023-08-06T12:58:39;10.77;;;4.82;;
52104;SDS011;38103;42.776;23.112;2023-08-06T13:01:05;11.23;;;4.72;;
52104;SDS011;38103;42.776;23.112;2023-08-06T13:03:30;12.82;;;5.55;;
52104;SDS011;38103;42.776;23.112;2023-08-06T13:05:56;11.07;;;4.88;;
52104;SDS011;38103;42.776;23.112;2023-08-06T13:08:23;11.45;;;5.28;;
52104;SDS011;38103;42.776;23.112;2023-08-06T13:10:48;11.32;;;4.88;;
52104;SDS011;38103;42.776;23.112;2023-08-06T13:13:14;9.52;;;4.80;;
52104;SDS011;38103;42.776;23.112;2023-08-06T13:15:39;12.40;;;5.13;;
52104;SDS011;38103;42.776;23.112;2023-08-06T13:18:04;10.88;;;4.50;;
52104;SDS011;38103;42.776;23.112;2023-08-06T13:20:30;11.02;;;4.70;;
52104;SDS011;38103;42.776;23.112;2023-08-06T13:22:56;10.77;;;4.70;;
52104;SDS011;38103;42.776;23.112;2023-08-06T13:25:23;11.75;;;4.65;;
52104;SDS011;38103;42.776;23.112;2023-08-06T13:27:48;10.45;;;4.88;;
52104;SDS011;38103;42.776;23.112;2023-08-06T13:30:13;12.25;;;4.65;;
52104;SDS011;38103;42.776;23.112;2023-08-06T13:32:39;15.43;;;4.88;;
52104;SDS011;38103;42.776;23.112;2023-08-06T13:35:04;12.27;;;5.25;;
52104;SDS011;38103;42.776;23.112;2023-08-06T13:37:30;11.48;;;4.93;;
52104;SDS011;38103;42.776;23.112;2023-08-06T13:39:55;10.98;;;5.15;;
52104;SDS011;38103;42.776;23.112;2023-08-06T13:42:21;11.55;;;4.35;;
52104;SDS011;38103;42.776;23.112;2023-08-06T13:44:47;10.57;;;4.70;;
52104;SDS011;38103;42.776;23.112;2023-08-06T13:47:12;13.10;;;4.70;;
52104;SDS011;38103;42.776;23.112;2023-08-06T13:49:37;11.93;;;4.47;;
52104;SDS011;38103;42.776;23.112;2023-08-06T13:52:03;11.68;;;3.95;;
52104;SDS011;38103;42.776;23.112;2023-08-06T13:54:29;10.48;;;4.90;;
52104;SDS011;38103;42.776;23.112;2023-08-06T13:56:55;11.98;;;4.93;;
52104;SDS011;38103;42.776;23.112;2023-08-06T13:59:20;13.05;;;4.70;;
52104;SDS011;38103;42.776;23.112;2023-08-06T14:01:46;11.88;;;5.55;;
52104;SDS011;38103;42.776;23.112;2023-08-06T14:04:12;12.23;;;5.20;;
52104;SDS011;38103;42.776;23.112;2023-08-06T14:06:38;10.57;;;4.32;;
52104;SDS011;38103;42.776;23.112;2023-08-06T14:09:03;9.82;;;4.38;;
52104;SDS011;38103;42.776;23.112;2023-08-06T14:11:28;9.95;;;4.30;;
52104;SDS011;38103;42.776;23.112;2023-08-06T14:13:54;11.57;;;4.90;;
52104;SDS011;38103;42.776;23.112;2023-08-06T14:16:20;10.70;;;4.47;;
52104;SDS011;38103;42.776;23.112;2023-08-06T14:18:45;14.93;;;4.72;;
52104;SDS011;38103;42.776;23.112;2023-08-06T14:21:11;11.98;;;4.45;;
52104;SDS011;38103;42.776;23.112;2023-08-06T14:23:36;13.50;;;5.18;;
52104;SDS011;38103;42.776;23.112;2023-08-06T14:26:01;13.27;;;5.30;;
52104;SDS011;38103;42.776;23.112;2023-08-06T14:28:27;11.50;;;4.93;;
52104;SDS011;38103;42.776;23.112;2023-08-06T14:30:52;13.45;;;5.55;;
52104;SDS011;38103;42.776;23.112;2023-08-06T14:33:18;11.35;;;4.85;;
52104;SDS011;38103;42.776;23.112;2023-08-06T14:35:43;13.68;;;5.05;;